Time;durP1;ratioP1;P1;durP2;ratioP2;P2;SDS_P1;SDS_P2;PMS_P1;PMS_P2;Temp;Humidity;BMP_temperature;BMP_pressure;BME280_temperature;BME280_humidity;BME280_pressure;Samples;Min_cycle;Max_cycle;Signal;HPM_P1;HPM_P2
2022/03/22 00:02:12;;;;;;;77.23;34.17;;;;;;;-1.09;54.22;102702.56;1765060;80;21489;-76
2022/03/22 00:04:39;;;;;;;66.33;33.97;;;;;;;-1.15;54.11;102708.30;1765319;81;21009;-76
2022/03/22 00:07:08;;;;;;;66.93;32.50;;;;;;;-1.24;54.18;102704.01;1765194;81;21028;-77
2022/03/22 00:09:36;;;;;;;68.83;31.83;;;;;;;-1.27;54.34;102704.27;1765272;81;21778;-75
2022/03/22 00:12:05;;;;;;;66.03;30.70;;;;;;;-1.29;54.62;102705.88;1764988;81;21051;-76
2022/03/22 00:14:33;;;;;;;60.17;30.30;;;;;;;-1.30;54.70;102708.86;1765438;80;21450;-73
2022/03/22 00:17:00;;;;;;;68.63;31.13;;;;;;;-1.34;54.69;102706.94;1765153;81;20965;-75
2022/03/22 00:19:27;;;;;;;66.13;33.10;;;;;;;-1.37;54.87;102710.23;1765050;81;21047;-76
2022/03/22 00:31:14;;;;;;;62.63;29.30;;;;;;;-1.45;54.90;102704.24;1765267;81;21512;-77
2022/03/22 00:34:06;;;;;;;53.33;27.63;;;;;;;-1.50;54.85;102705.70;1765300;81;20996;-77
2022/03/22 00:36:34;;;;;;;57.83;28.60;;;;;;;-1.55;54.89;102707.16;1765068;80;21032;-76
2022/03/22 00:39:02;;;;;;;52.90;27.77;;;;;;;-1.61;54.95;102702.22;1765399;80;21107;-76
2022/03/22 00:41:30;;;;;;;62.33;28.93;;;;;;;-1.63;54.91;102706.80;1764968;80;20993;-76
2022/03/22 00:43:57;;;;;;;58.37;27.77;;;;;;;-1.68;54.92;102707.84;1765356;81;21339;-77
2022/03/22 00:46:25;;;;;;;52.30;26.60;;;;;;;-1.67;54.95;102708.31;1764978;81;21572;-76
2022/03/22 00:48:53;;;;;;;48.93;25.90;;;;;;;-1.64;55.07;102702.04;1765007;81;21071;-76
2022/03/22 00:51:23;;;;;;;50.27;25.97;;;;;;;-1.63;55.02;102709.38;1764799;81;21129;-76
2022/03/22 00:53:48;;;;;;;49.93;24.57;;;;;;;-1.64;55.04;102707.59;1764758;81;21110;-76
2022/03/22 00:56:17;;;;;;;47.03;23.70;;;;;;;-1.62;54.69;102701.72;1764965;81;21458;-77
2022/03/22 00:58:44;;;;;;;51.90;25.10;;;;;;;-1.49;54.31;102699.36;1765393;81;21051;-76
2022/03/22 01:01:11;;;;;;;58.07;28.63;;;;;;;-1.36;54.32;102698.25;1762417;81;21462;-77
2022/03/22 01:03:39;;;;;;;53.87;28.33;;;;;;;-1.32;54.25;102697.61;1762120;81;21104;-75
2022/03/22 01:06:08;;;;;;;50.73;24.33;;;;;;;-1.32;54.27;102697.61;1762059;81;21004;-75
2022/03/22 01:08:37;;;;;;;48.60;25.33;;;;;;;-1.28;54.15;102692.20;1762247;81;21083;-76
2022/03/22 01:11:05;;;;;;;47.00;24.10;;;;;;;-1.23;53.90;102700.61;1762063;81;20985;-77
2022/03/22 01:13:33;;;;;;;43.00;23.73;;;;;;;-1.21;53.91;102691.70;1762473;81;21180;-75
2022/03/22 01:16:00;;;;;;;41.93;23.80;;;;;;;-1.25;53.71;102689.36;1762071;81;22140;-76
2022/03/22 01:18:27;;;;;;;43.77;22.73;;;;;;;-1.28;53.68;102689.22;1762579;81;21016;-76
2022/03/22 01:20:56;;;;;;;42.30;23.03;;;;;;;-1.31;53.66;102689.48;1762035;81;21000;-76
2022/03/22 01:23:25;;;;;;;42.80;23.20;;;;;;;-1.35;53.80;102680.33;1762440;81;21368;-76
2022/03/22 01:25:52;;;;;;;40.93;21.47;;;;;;;-1.37;53.76;102683.22;1762050;81;21035;-76
2022/03/22 01:28:19;;;;;;;43.93;23.93;;;;;;;-1.38;53.80;102690.48;1762361;81;21106;-74
2022/03/22 01:30:46;;;;;;;39.53;21.80;;;;;;;-1.38;53.80;102684.45;1761935;81;21028;-76
2022/03/22 01:33:14;;;;;;;42.20;23.03;;;;;;;-1.42;53.85;102680.83;1762358;81;21418;-75
2022/03/22 01:35:42;;;;;;;43.20;23.27;;;;;;;-1.46;54.06;102680.22;1762166;81;21028;-76
2022/03/22 01:38:10;;;;;;;49.83;24.83;;;;;;;-1.50;54.12;102683.84;1762302;81;21040;-75
2022/03/22 01:40:38;;;;;;;54.90;27.27;;;;;;;-1.49;54.09;102676.63;1761997;81;21114;-76
2022/03/22 01:43:06;;;;;;;56.87;27.30;;;;;;;-1.51;54.29;102679.52;1762026;81;20993;-75
2022/03/22 01:45:33;;;;;;;51.20;25.60;;;;;;;-1.55;54.11;102678.88;1762126;81;21023;-76
2022/03/22 01:48:04;;;;;;;50.33;26.07;;;;;;;-1.60;54.21;102685.97;1762085;81;21087;-76
2022/03/22 01:50:32;;;;;;;55.80;25.32;;;;;;;-1.62;54.39;102672.55;1762315;81;21011;-76
2022/03/22 01:53:00;;;;;;;46.53;24.47;;;;;;;-1.63;54.45;102674.25;1762084;81;21092;-76
2022/03/22 01:55:29;;;;;;;48.03;24.37;;;;;;;-1.67;54.54;102670.16;1761931;81;21023;-75
2022/03/22 01:57:57;;;;;;;46.27;24.60;;;;;;;-1.69;54.68;102667.53;1762055;81;20996;-75
2022/03/22 02:00:25;;;;;;;44.33;22.17;;;;;;;-1.70;54.77;102660.59;1761971;81;21004;-76
2022/03/22 02:05:52;;;;;;;43.07;23.07;;;;;;;-1.66;55.06;102656.10;1762076;81;22012;-76
2022/03/22 02:08:24;;;;;;;43.52;22.95;;;;;;;-1.65;55.11;102660.84;1762050;81;21016;-76
2022/03/22 02:10:52;;;;;;;45.60;23.53;;;;;;;-1.70;55.24;102660.59;1762250;81;21031;-76
2022/03/22 02:13:19;;;;;;;50.07;23.70;;;;;;;-1.74;55.41;102664.25;1762101;81;21075;-76
2022/03/22 02:15:51;;;;;;;46.03;24.63;;;;;;;-1.80;55.38;102660.97;1762003;81;21005;-76
2022/03/22 02:18:18;;;;;;;50.70;25.93;;;;;;;-1.83;55.52;102659.13;1762367;81;21341;-76
2022/03/22 02:20:47;;;;;;;50.27;24.50;;;;;;;-1.83;55.47;102656.94;1762186;81;21004;-75
2022/03/22 02:23:21;;;;;;;52.10;25.60;;;;;;;-1.83;55.63;102660.80;1762000;81;20996;-75
2022/03/22 02:25:53;;;;;;;46.87;23.30;;;;;;;-1.84;55.66;102659.91;1762246;81;21517;-76
2022/03/22 02:28:22;;;;;;;42.27;22.70;;;;;;;-1.87;55.70;102657.20;1761371;81;21055;-75
2022/03/22 02:30:50;;;;;;;42.57;23.50;;;;;;;-1.85;55.95;102655.59;1762060;81;21826;-76
2022/03/22 02:33:17;;;;;;;47.63;23.97;;;;;;;-1.82;55.82;102656.15;1762194;81;21000;-73
2022/03/22 02:35:46;;;;;;;44.47;23.33;;;;;;;-1.85;55.76;102652.14;1762140;81;21012;-76
2022/03/22 02:38:13;;;;;;;43.27;22.23;;;;;;;-1.88;55.83;102654.16;1762364;81;20996;-75
2022/03/22 02:40:41;;;;;;;45.83;23.70;;;;;;;-1.91;55.97;102654.38;1762358;81;21031;-76
2022/03/22 02:43:08;;;;;;;45.97;23.73;;;;;;;-1.98;56.02;102655.78;1761952;81;21219;-76
2022/03/22 02:45:35;;;;;;;46.90;23.53;;;;;;;-1.91;56.16;102653.09;1731942;82;21030;-75
2022/03/22 02:48:03;;;;;;;47.60;24.20;;;;;;;-1.90;56.13;102644.20;1762139;81;21020;-76
2022/03/22 02:50:30;;;;;;;47.33;23.83;;;;;;;-1.95;56.15;102647.34;1762431;81;21020;-75
2022/03/22 02:52:57;;;;;;;50.67;25.60;;;;;;;-1.93;56.18;102647.02;1762241;81;21616;-75
2022/03/22 02:55:24;;;;;;;51.50;26.20;;;;;;;-1.96;56.05;102648.16;1762402;81;21156;-76
2022/03/22 02:57:51;;;;;;;44.13;23.90;;;;;;;-1.98;56.03;102649.77;1762152;81;21024;-74
2022/03/22 03:00:18;;;;;;;50.67;24.67;;;;;;;-2.02;56.18;102651.30;1762262;81;21052;-75
2022/03/22 03:02:52;;;;;;;47.87;25.90;;;;;;;-2.02;56.41;102656.44;1762155;81;21447;-75
2022/03/22 03:05:20;;;;;;;41.73;23.40;;;;;;;-2.02;56.41;102656.03;1762406;81;21536;-75
2022/03/22 03:07:49;;;;;;;62.37;30.40;;;;;;;-2.03;56.47;102660.67;1762134;81;21270;-76
2022/03/22 03:10:16;;;;;;;58.47;30.50;;;;;;;-2.02;56.59;102665.03;1762400;81;21059;-76
2022/03/22 03:12:44;;;;;;;53.33;26.47;;;;;;;-1.98;56.78;102667.34;1762110;81;20977;-76
2022/03/22 03:15:12;;;;;;;48.27;25.17;;;;;;;-1.94;57.14;102665.80;1762500;81;21008;-75
2022/03/22 03:17:39;;;;;;;47.93;25.73;;;;;;;-1.88;57.15;102663.16;1762143;81;21027;-75
2022/03/22 03:20:09;;;;;;;55.70;28.43;;;;;;;-1.88;57.15;102667.01;1762116;81;21247;-75
2022/03/22 03:22:36;;;;;;;55.33;26.97;;;;;;;-1.86;57.14;102660.64;1762152;81;20977;-74
2022/03/22 03:25:06;;;;;;;60.30;29.20;;;;;;;-1.87;57.03;102665.31;1762074;81;21060;-74
2022/03/22 03:27:34;;;;;;;60.08;29.82;;;;;;;-1.93;56.98;102663.32;1762289;81;20976;-75
2022/03/22 03:30:04;;;;;;;55.63;29.50;;;;;;;-1.98;56.95;102666.06;1762339;81;21580;-76
2022/03/22 03:32:33;;;;;;;56.20;30.23;;;;;;;-2.04;56.88;102666.63;1762224;81;21111;-75
2022/03/22 03:35:01;;;;;;;55.10;29.40;;;;;;;-2.08;56.85;102667.67;1762067;81;22045;-75
2022/03/22 03:37:30;;;;;;;55.20;29.33;;;;;;;-2.13;56.95;102674.29;1762116;81;21001;-75
2022/03/22 03:39:57;;;;;;;57.57;30.00;;;;;;;-2.20;56.92;102670.50;1762452;81;20996;-75
2022/03/22 03:42:24;;;;;;;58.83;30.87;;;;;;;-2.26;57.07;102676.20;1762276;81;21000;-76
2022/03/22 03:47:36;;;;;;;56.73;29.57;;;;;;;-2.34;57.27;102668.50;1762158;81;21020;-75
2022/03/22 03:50:06;;;;;;;83.57;38.77;;;;;;;-2.29;57.39;102668.34;1762111;81;21044;-75
2022/03/22 03:52:36;;;;;;;65.20;30.82;;;;;;;-2.21;57.96;102676.86;1762252;81;21024;-75
2022/03/22 03:55:07;;;;;;;82.62;38.55;;;;;;;-2.09;58.19;102678.36;1762446;81;21039;-76
2022/03/22 03:57:36;;;;;;;;;;;;;;;-2.06;57.94;102675.06;1764767;81;21122;-75
2022/03/22 04:00:07;;;;;;;117.00;46.10;;;;;;;-2.06;58.14;102674.66;1762095;81;20464;-75
2022/03/22 04:02:36;;;;;;;109.10;44.77;;;;;;;-2.10;57.97;102668.89;1756323;80;20961;-75
2022/03/22 04:05:04;;;;;;;89.37;38.33;;;;;;;-2.15;57.86;102678.05;1756532;81;21059;-75
2022/03/22 04:07:31;;;;;;;69.53;31.77;;;;;;;-2.17;58.06;102674.51;1756529;81;21032;-76
2022/03/22 04:09:58;;;;;;;51.90;27.93;;;;;;;-2.19;58.02;102671.00;1756506;81;21110;-76
2022/03/22 04:12:26;;;;;;;53.67;27.67;;;;;;;-2.25;57.94;102675.39;1756910;81;20905;-75
2022/03/22 04:14:54;;;;;;;51.80;28.43;;;;;;;-2.28;58.10;102676.52;1756403;81;21019;-75
2022/03/22 04:17:21;;;;;;;58.37;29.80;;;;;;;-2.28;58.18;102675.64;1756734;81;21579;-75
2022/03/22 04:19:48;;;;;;;77.27;34.53;;;;;;;-2.25;58.20;102679.66;1756371;81;21490;-74
2022/03/22 04:22:16;;;;;;;79.17;36.77;;;;;;;-2.28;58.23;102680.78;1756483;81;21093;-75
2022/03/22 04:24:43;;;;;;;67.57;33.07;;;;;;;-2.35;58.22;102673.17;1756138;81;21095;-73
2022/03/22 04:32:41;;;;;;;52.77;27.07;;;;;;;-2.30;58.69;102692.66;1756772;81;21036;-76
2022/03/22 04:35:12;;;;;;;52.63;28.43;;;;;;;-2.33;58.70;102691.22;1756562;81;21110;-77
2022/03/22 04:37:41;;;;;;;57.03;27.22;;;;;;;-2.38;58.79;102690.99;1756760;81;27032;-76
2022/03/22 04:40:12;;;;;;;56.43;27.50;;;;;;;-2.38;58.85;102686.23;1756489;81;20997;-75
2022/03/22 04:42:41;;;;;;;49.37;27.60;;;;;;;-2.42;58.82;102688.17;1756862;81;21032;-76
2022/03/22 04:45:10;;;;;;;55.67;28.90;;;;;;;-2.44;58.90;102698.34;1756418;81;21028;-76
2022/03/22 04:47:37;;;;;;;58.17;29.47;;;;;;;-2.44;59.03;102697.47;1756761;81;21097;-75
2022/03/22 04:50:08;;;;;;;57.47;26.97;;;;;;;-2.39;59.27;102694.34;1756475;81;21016;-74
2022/03/22 04:58:08;;;;;;;48.80;26.43;;;;;;;-2.42;59.04;102699.73;1749647;81;21017;-73
2022/03/22 05:00:35;;;;;;;52.90;28.17;;;;;;;-2.46;58.96;102696.12;1756330;81;21955;-76
2022/03/22 05:03:07;;;;;;;60.97;31.40;;;;;;;-2.51;59.05;102703.98;1756332;81;20965;-77
2022/03/22 05:08:19;;;;;;;123.57;55.80;;;;;;;-2.59;59.06;102709.11;1756560;81;21016;-76
2022/03/22 05:10:46;;;;;;;123.17;56.03;;;;;;;-2.62;59.23;102708.53;1755811;81;20997;-75
2022/03/22 05:13:13;;;;;;;86.73;42.10;;;;;;;-2.60;59.39;102708.63;1754898;81;21120;-75
2022/03/22 05:15:40;;;;;;;74.80;36.77;;;;;;;-2.57;59.71;102713.52;1754931;81;21016;-76
2022/03/22 05:18:07;;;;;;;64.13;32.80;;;;;;;-2.49;59.83;102721.23;1755226;81;21009;-74
2022/03/22 05:20:34;;;;;;;70.27;33.43;;;;;;;-2.43;60.01;102718.11;1755799;81;21019;-76
2022/03/22 05:23:02;;;;;;;61.60;33.10;;;;;;;-2.34;60.12;102721.16;1756322;81;20993;-75
2022/03/22 05:25:31;;;;;;;64.73;34.57;;;;;;;-2.29;60.00;102712.42;1755942;81;21495;-74
2022/03/22 05:28:00;;;;;;;67.03;36.20;;;;;;;-2.23;60.04;102716.59;1756226;81;20932;-76
2022/03/22 05:30:27;;;;;;;71.37;33.57;;;;;;;-2.21;59.94;102712.42;1756120;81;21036;-75
2022/03/22 05:32:54;;;;;;;63.60;34.67;;;;;;;-2.22;59.83;102717.47;1755424;80;21107;-75
2022/03/22 05:35:23;;;;;;;65.00;34.03;;;;;;;-2.23;59.88;102714.42;1751891;81;21501;-76
2022/03/22 05:37:51;;;;;;;60.73;32.40;;;;;;;-2.20;59.96;102709.03;1755283;81;22095;-76
2022/03/22 05:40:19;;;;;;;64.00;33.67;;;;;;;-2.16;59.95;102711.36;1755118;81;37504;-75
2022/03/22 05:42:47;;;;;;;70.20;34.43;;;;;;;-2.09;59.99;102714.73;1754845;81;21064;-75
2022/03/22 05:45:15;;;;;;;61.77;33.60;;;;;;;-2.10;60.02;102710.41;1759563;80;21444;-76
2022/03/22 05:47:42;;;;;;;63.63;33.63;;;;;;;-2.04;60.21;102708.16;1771654;80;21000;-75
2022/03/22 05:50:10;;;;;;;66.50;33.20;;;;;;;-1.94;60.24;102712.06;1771645;80;21124;-76
2022/03/22 05:52:45;;;;;;;66.43;34.83;;;;;;;-1.88;60.18;102711.12;1754927;80;21024;-76
2022/03/22 05:55:13;;;;;;;64.97;33.97;;;;;;;-1.80;60.12;102710.70;1768394;80;21549;-76
2022/03/22 05:57:41;;;;;;;71.20;34.07;;;;;;;-1.68;60.22;102713.40;1770885;80;21001;-76
2022/03/22 06:00:09;;;;;;;67.93;34.83;;;;;;;-1.58;60.19;102708.80;1760432;80;21074;-75
2022/03/22 06:02:40;;;;;;;67.60;35.60;;;;;;;-1.47;60.13;102709.70;1771208;79;21087;-74
2022/03/22 06:05:11;;;;;;;;;;;;;;;-1.39;60.26;102712.25;1757124;80;21540;-76
2022/03/22 06:07:41;;;;;;;65.27;33.30;;;;;;;-1.30;60.39;102715.67;1756364;81;20159;-76
2022/03/22 06:10:14;;;;;;;57.70;31.83;;;;;;;-1.20;60.28;102712.75;1756354;81;21560;-75
2022/03/22 06:12:51;;;;;;;66.03;33.80;;;;;;;-1.08;60.33;102713.73;1756380;81;21020;-73
2022/03/22 06:15:24;;;;;;;60.77;32.83;;;;;;;-0.97;60.27;102712.55;1756340;81;21178;-75
2022/03/22 06:17:58;;;;;;;65.80;34.13;;;;;;;-0.84;60.25;102713.61;1756623;81;20976;-74
2022/03/22 06:20:32;;;;;;;65.30;34.57;;;;;;;-0.66;60.15;102718.75;1755816;81;21003;-74
2022/03/22 06:23:01;;;;;;;60.70;33.00;;;;;;;-0.51;60.02;102721.13;1756860;81;21492;-74
2022/03/22 06:25:28;;;;;;;68.53;35.40;;;;;;;-0.32;60.01;102727.59;1756496;81;21003;-74
2022/03/22 06:27:57;;;;;;;58.90;32.97;;;;;;;-0.15;59.97;102723.18;1756672;81;21502;-74
2022/03/22 06:30:25;;;;;;;61.97;34.03;;;;;;;0.01;60.15;102723.87;1756381;81;21021;-74
2022/03/22 06:32:59;;;;;;;62.37;34.30;;;;;;;0.15;60.11;102717.60;1756751;81;20992;-75
2022/03/22 06:35:29;;;;;;;64.70;34.33;;;;;;;0.30;60.22;102721.23;1756531;81;21035;-74
2022/03/22 06:37:57;;;;;;;59.83;34.78;;;;;;;0.43;59.86;102717.06;1756611;81;26155;-73
2022/03/22 06:40:29;;;;;;;60.03;35.23;;;;;;;0.59;59.41;102719.88;1756440;81;21133;-74
2022/03/22 06:42:57;;;;;;;59.47;32.37;;;;;;;0.76;59.30;102720.56;1758082;80;21470;-74
2022/03/22 06:45:25;;;;;;;61.50;32.87;;;;;;;0.95;59.14;102723.48;1762129;80;21004;-73
2022/03/22 06:47:52;;;;;;;61.33;32.47;;;;;;;1.09;59.04;102714.15;1756802;81;20996;-73
2022/03/22 06:50:20;;;;;;;59.93;32.80;;;;;;;1.26;59.19;102722.97;1756148;81;21587;-74
2022/03/22 06:52:47;;;;;;;60.77;33.17;;;;;;;1.43;59.11;102726.19;1756421;81;21150;-74
2022/03/22 06:55:18;;;;;;;58.77;32.50;;;;;;;1.62;58.75;102721.30;1756125;81;21010;-74
2022/03/22 06:57:45;;;;;;;68.13;36.47;;;;;;;1.84;58.05;102726.84;1756954;81;21051;-74
2022/03/22 07:00:15;;;;;;;60.80;34.90;;;;;;;2.09;57.45;102715.24;1758883;80;21252;-73
2022/03/22 07:02:42;;;;;;;66.02;34.92;;;;;;;2.33;56.89;102712.62;1764758;79;21572;-76
2022/03/22 07:05:10;;;;;;;62.57;35.63;;;;;;;2.52;56.42;102717.11;1775222;79;21115;-76
2022/03/22 07:07:39;;;;;;;75.43;39.53;;;;;;;2.71;56.02;102714.71;1777884;79;21008;-75
2022/03/22 07:10:11;;;;;;;71.43;39.47;;;;;;;2.89;55.60;102719.20;1733442;81;21036;-76
2022/03/22 07:12:58;;;;;;;76.83;44.17;;;;;;;3.04;55.24;102717.07;1744421;81;21027;-75
2022/03/22 07:15:37;;;;;;;73.23;37.83;;;;;;;3.22;54.89;102724.97;1694087;81;21489;-74
2022/03/22 07:18:08;;;;;;;74.40;39.60;;;;;;;3.39;54.41;102717.70;1740887;81;21154;-75
2022/03/22 07:20:36;;;;;;;63.33;34.63;;;;;;;3.52;53.94;102719.41;1739498;81;20939;-74
2022/03/22 07:23:04;;;;;;;67.13;35.63;;;;;;;3.69;53.47;102721.61;1720438;82;21061;-75
2022/03/22 07:25:33;;;;;;;68.77;39.03;;;;;;;3.82;53.08;102722.81;1705684;82;21036;-74
2022/03/22 07:28:00;;;;;;;72.20;37.73;;;;;;;3.96;52.81;102722.38;1713637;83;21019;-74
2022/03/22 07:30:28;;;;;;;80.80;42.07;;;;;;;4.12;52.55;102718.45;1691839;82;21105;-76
2022/03/22 07:32:55;;;;;;;84.10;44.70;;;;;;;4.25;52.29;102722.27;1699155;84;21016;-77
2022/03/22 07:35:23;;;;;;;82.17;43.23;;;;;;;4.37;51.96;102724.30;1699318;84;21516;-74
2022/03/22 07:37:50;;;;;;;88.70;46.97;;;;;;;4.49;51.74;102724.63;1699208;84;21007;-75
2022/03/22 07:40:20;;;;;;;100.20;50.13;;;;;;;4.62;51.44;102725.80;1699232;84;22081;-73
2022/03/22 07:42:48;;;;;;;97.77;50.97;;;;;;;4.74;51.12;102721.31;1699375;84;21076;-75
2022/03/22 07:45:19;;;;;;;75.73;39.53;;;;;;;4.87;51.01;102722.06;1698068;83;20991;-74
2022/03/22 07:47:45;;;;;;;60.47;35.27;;;;;;;5.02;50.79;102726.34;1706246;82;21049;-74
2022/03/22 07:53:05;;;;;;;59.50;35.33;;;;;;;5.32;50.16;102733.05;1699154;82;21030;-75
2022/03/22 07:55:33;;;;;;;67.30;39.50;;;;;;;5.48;49.82;102731.24;1709429;83;21115;-74
2022/03/22 07:58:00;;;;;;;64.03;36.83;;;;;;;5.63;49.59;102732.01;1709912;82;20911;-73
2022/03/22 08:00:34;;;;;;;62.27;39.03;;;;;;;5.80;49.47;102725.84;1707350;82;21092;-74
2022/03/22 08:03:01;;;;;;;64.55;37.53;;;;;;;5.97;49.26;102732.28;1725490;79;21038;-74
2022/03/22 08:05:28;;;;;;;74.87;43.00;;;;;;;6.13;48.97;102724.34;1701793;82;21010;-74
2022/03/22 08:07:56;;;;;;;80.30;44.03;;;;;;;6.30;48.77;102723.78;1720232;82;21111;-75
2022/03/22 08:10:25;;;;;;;80.07;46.27;;;;;;;6.45;48.31;102720.12;1708587;82;21036;-75
2022/03/22 08:12:58;;;;;;;60.93;38.07;;;;;;;6.60;48.35;102720.83;1711016;82;21066;-75
2022/03/22 08:15:24;;;;;;;64.22;37.80;;;;;;;6.80;47.94;102723.31;1713907;83;20987;-77
2022/03/22 08:17:51;;;;;;;57.13;34.57;;;;;;;6.94;47.55;102718.31;1706979;82;21041;-75
2022/03/22 08:20:18;;;;;;;61.30;36.33;;;;;;;7.14;47.30;102716.87;1710225;83;21805;-77
2022/03/22 08:22:59;;;;;;;59.17;35.10;;;;;;;7.34;47.15;102721.48;1710147;83;21018;-76
2022/03/22 08:25:30;;;;;;;56.60;33.70;;;;;;;7.53;46.79;102710.86;1710523;83;20995;-76
2022/03/22 08:28:01;;;;;;;54.37;33.10;;;;;;;7.74;46.43;102707.65;1709905;83;21101;-76
2022/03/22 08:30:28;;;;;;;;;;;;;;;7.96;46.07;102704.85;1713038;83;21022;-76
2022/03/22 08:32:58;;;;;;;51.07;31.20;;;;;;;8.15;45.53;102706.80;1710329;83;21180;-77
2022/03/22 08:35:28;;;;;;;61.95;35.43;;;;;;;8.31;45.47;102705.61;1710138;83;20991;-75
2022/03/22 08:37:55;;;;;;;56.63;32.37;;;;;;;8.47;44.97;102700.56;1710289;83;21526;-76
2022/03/22 08:40:23;;;;;;;56.20;33.80;;;;;;;8.62;44.65;102702.45;1710159;83;21511;-76
2022/03/22 08:42:53;;;;;;;56.83;34.70;;;;;;;8.83;44.64;102704.77;1710329;83;21590;-76
2022/03/22 08:45:24;;;;;;;50.20;32.67;;;;;;;9.04;44.21;102701.00;1710207;83;21905;-76
2022/03/22 08:47:53;;;;;;;52.67;32.07;;;;;;;9.21;43.80;102692.38;1709807;83;20989;-76
2022/03/22 08:50:23;;;;;;;49.27;32.20;;;;;;;9.39;43.54;102691.14;1710046;83;21042;-76
2022/03/22 08:52:50;;;;;;;48.80;31.55;;;;;;;9.59;43.18;102692.11;1710223;83;20990;-76
2022/03/22 08:55:18;;;;;;;56.13;31.67;;;;;;;9.78;42.81;102681.27;1710070;83;21038;-76
2022/03/22 08:57:48;;;;;;;50.67;32.53;;;;;;;9.93;42.38;102688.72;1710139;83;21209;-76
2022/03/22 09:00:17;;;;;;;52.85;31.90;;;;;;;10.11;42.35;102691.80;1710169;83;21002;-77
2022/03/22 09:02:48;;;;;;;48.30;32.50;;;;;;;10.35;42.19;102683.13;1717314;82;21048;-76
2022/03/22 09:08:05;;;;;;;46.13;29.23;;;;;;;10.81;40.98;102681.77;1765128;81;20677;-76
2022/03/22 09:10:31;;;;;;;;;;;;;;;10.96;40.88;102678.27;1743975;82;21937;-76
2022/03/22 09:12:58;;;;;;;45.07;28.53;;;;;;;11.18;40.29;102677.33;1764933;81;20164;-76
2022/03/22 09:15:27;;;;;;;42.70;29.07;;;;;;;11.37;40.31;102673.76;1765033;81;21011;-75
2022/03/22 09:17:56;;;;;;;37.97;25.37;;;;;;;11.59;40.19;102667.11;1765259;80;20999;-76
2022/03/22 09:20:32;;;;;;;38.00;26.13;;;;;;;11.81;39.74;102659.53;1765010;81;21530;-76
2022/03/22 09:22:55;;;;;;;42.00;26.60;;;;;;;12.04;39.49;102659.85;1764912;80;21115;-76
2022/03/22 09:25:23;;;;;;;40.30;25.73;;;;;;;12.34;39.29;102662.69;1764878;81;21008;-76
2022/03/22 09:27:50;;;;;;;37.00;24.40;;;;;;;12.55;38.48;102652.41;1765251;81;20990;-75
2022/03/22 09:30:18;;;;;;;38.00;25.53;;;;;;;12.68;37.84;102647.47;1714113;82;21576;-76
2022/03/22 09:32:47;;;;;;;40.63;25.23;;;;;;;12.88;38.21;102649.02;1741656;82;21033;-76
2022/03/22 09:35:19;;;;;;;39.18;25.60;;;;;;;13.17;37.92;102651.34;1765003;81;21057;-76
2022/03/22 09:37:48;;;;;;;39.25;26.23;;;;;;;13.39;37.61;102638.36;1765174;80;20980;-76
2022/03/22 09:40:19;;;;;;;33.23;24.12;;;;;;;13.63;37.18;102638.03;1765503;81;21449;-76
2022/03/22 09:42:47;;;;;;;33.38;23.02;;;;;;;13.86;36.65;102628.50;1741452;82;20999;-76
2022/03/22 09:45:21;;;;;;;30.80;21.23;;;;;;;14.08;36.27;102637.81;1765283;81;21246;-76
2022/03/22 09:47:48;;;;;;;28.07;19.85;;;;;;;14.33;35.77;102636.06;1764744;81;21131;-76
2022/03/22 09:50:19;;;;;;;27.05;19.27;;;;;;;14.57;35.30;102635.67;1741671;82;20982;-76
2022/03/22 09:52:47;;;;;;;28.77;20.95;;;;;;;14.78;35.11;102633.09;1764955;80;21544;-76
2022/03/22 09:55:18;;;;;;;26.45;18.25;;;;;;;15.04;34.79;102629.06;1741615;82;20991;-76
2022/03/22 09:57:45;;;;;;;26.75;19.23;;;;;;;15.26;34.11;102633.45;1764768;81;21079;-76
2022/03/22 10:00:16;;;;;;;31.62;21.07;;;;;;;15.40;33.46;102628.28;1765217;80;21097;-76
2022/03/22 10:02:43;;;;;;;26.23;19.75;;;;;;;15.53;33.18;102632.00;1762951;81;21061;-76
2022/03/22 10:05:24;;;;;;;25.60;18.52;;;;;;;15.72;33.00;102624.11;1756105;81;20996;-76
2022/03/22 10:08:04;;;;;;;21.75;15.48;;;;;;;16.02;32.87;102622.97;1756126;81;21007;-76
2022/03/22 10:10:33;;;;;;;21.60;16.48;;;;;;;16.27;32.39;102622.77;1755192;81;21011;-76
2022/03/22 10:13:04;;;;;;;21.90;16.10;;;;;;;16.53;32.13;102623.86;1756301;81;21069;-75
2022/03/22 10:15:38;;;;;;;22.50;15.63;;;;;;;16.76;31.47;102621.04;1762831;80;21000;-76
2022/03/22 10:18:08;;;;;;;23.05;16.20;;;;;;;16.85;30.78;102619.48;1734911;82;21021;-75
2022/03/22 10:20:39;;;;;;;21.40;16.25;;;;;;;17.23;30.07;102602.95;1740277;82;21009;-75
2022/03/22 10:23:09;;;;;;;22.85;16.40;;;;;;;17.23;30.07;102602.95;1739958;82;21037;-75
2022/03/22 10:25:40;;;;;;;21.85;17.02;;;;;;;17.48;29.62;102609.23;1740171;82;21115;-78
2022/03/22 10:28:10;;;;;;;19.05;14.00;;;;;;;17.73;29.50;102608.00;1739934;82;21054;-75
2022/03/22 10:30:37;;;;;;;19.05;12.68;;;;;;;17.92;28.94;102612.77;1740190;82;21069;-75
2022/03/22 10:33:06;;;;;;;18.27;13.55;;;;;;;18.01;28.22;102600.51;1739847;82;21002;-75
2022/03/22 10:35:37;;;;;;;20.60;15.20;;;;;;;18.15;27.93;102601.38;1740094;82;21491;-75
2022/03/22 10:38:08;;;;;;;19.92;14.83;;;;;;;18.17;27.57;102605.72;1739813;82;21779;-75
2022/03/22 10:40:47;;;;;;;19.32;14.60;;;;;;;18.32;27.33;102597.70;1740019;82;20994;-75
2022/03/22 10:43:31;;;;;;;18.42;12.75;;;;;;;18.52;27.37;102596.14;1739764;82;20990;-75
2022/03/22 10:46:00;;;;;;;17.95;13.68;;;;;;;18.84;27.25;102591.87;1738131;82;21002;-76
2022/03/22 10:48:37;;;;;;;16.65;13.43;;;;;;;19.15;26.86;102587.62;1739829;82;21029;-76
2022/03/22 10:51:03;;;;;;;23.10;14.15;;;;;;;19.32;26.39;102589.63;1738482;82;21131;-76
2022/03/22 10:53:34;;;;;;;20.57;14.38;;;;;;;19.50;26.33;102585.36;1739957;82;20994;-76
2022/03/22 10:56:09;;;;;;;19.17;14.73;;;;;;;19.65;26.29;102585.66;1751364;82;21020;-76
2022/03/22 10:58:35;;;;;;;16.60;13.55;;;;;;;19.88;25.76;102584.77;1749483;82;20933;-77
2022/03/22 11:01:05;;;;;;;15.55;11.30;;;;;;;19.95;25.46;102583.13;1751416;82;21556;-76
2022/03/22 11:03:33;;;;;;;11.83;9.60;;;;;;;20.03;25.50;102573.00;1747322;81;21125;-76
2022/03/22 11:06:04;;;;;;;10.45;8.10;;;;;;;20.35;25.12;102584.55;1741758;82;21063;-76
2022/03/22 11:08:32;;;;;;;10.08;8.78;;;;;;;20.38;24.02;102580.42;1741807;82;21582;-76
2022/03/22 11:10:59;;;;;;;12.58;9.48;;;;;;;20.52;23.85;102577.16;1741817;82;21466;-75
2022/03/22 11:13:27;;;;;;;12.20;9.18;;;;;;;20.56;23.31;102569.44;1741880;82;21290;-78
2022/03/22 11:15:56;;;;;;;12.23;9.13;;;;;;;20.63;23.34;102570.44;1742034;82;21017;-77
2022/03/22 11:18:30;;;;;;;11.70;7.47;;;;;;;20.91;23.37;102560.71;1742046;82;21005;-78
2022/03/22 11:21:02;;;;;;;11.53;8.83;;;;;;;21.10;23.13;102559.86;1742132;82;21044;-78
2022/03/22 11:23:32;;;;;;;11.97;9.40;;;;;;;21.22;22.78;102560.60;1741887;82;21009;-78
2022/03/22 11:26:20;;;;;;;;;;;;;;;21.35;22.61;102556.89;1744524;82;21016;-78
2022/03/22 11:28:51;;;;;;;11.63;8.65;;;;;;;21.43;22.00;102552.08;1742017;82;21121;-78
2022/03/22 11:31:21;;;;;;;20.52;10.00;;;;;;;21.55;22.46;102551.94;1742054;82;21009;-78
2022/03/22 11:34:11;;;;;;;;;;;;;;;21.65;22.24;102551.03;1744555;82;21502;-76
2022/03/22 11:36:50;;;;;;;12.13;9.95;;;;;;;21.75;21.39;102541.13;1721061;82;20448;-76
2022/03/22 11:42:15;;;;;;;12.93;8.73;;;;;;;21.86;21.59;102535.73;1741868;82;21262;-76
2022/03/22 11:44:39;;;;;;;11.43;9.53;;;;;;;21.88;21.10;102533.86;1741811;82;21048;-76
2022/03/22 11:47:15;;;;;;;10.72;8.40;;;;;;;22.00;20.70;102535.89;1742130;82;21048;-76
2022/03/22 11:50:01;;;;;;;10.38;8.40;;;;;;;21.95;20.62;102525.91;1741724;82;21091;-77
2022/03/22 11:52:41;;;;;;;12.00;8.55;;;;;;;22.07;20.73;102527.11;1742043;82;21071;-79
2022/03/22 11:55:17;;;;;;;11.90;8.25;;;;;;;22.10;20.30;102517.59;1741897;82;21185;-81
2022/03/22 11:58:10;;;;;;;9.90;8.73;;;;;;;22.25;20.21;102516.36;1741948;82;20999;-78
2022/03/22 12:00:55;;;;;;;11.63;8.95;;;;;;;22.37;20.09;102505.97;1741775;82;21101;-77
2022/03/22 12:03:25;;;;;;;10.30;8.80;;;;;;;22.38;20.05;102508.54;1743007;80;21108;-76